CheckWX is a tool to help pilots better visualize weather data.  It is not intended as a substitute for an official pre-flight weather briefing.

21:14:24 UTC

2G9 METAR
Somerset County Airport
Somerset, Pennsylvania, USA
Current

19 mins ago

K2G9 192055Z AUTO 12006KT 10SM CLR 19/08 A3028 RMK AO2
Observed
Sep-19 @ 20:55 UTC
Wind
  • 120° at 6 KTS
Visibility
10 SM
Flight Rules
VFR
Cloud Levels
  • Clear skies
Temperature
19°C / 66°F
Dewpoint
C / 46°F
Humidity
49%
Altimeter
30.28" Hg
Pressure
1025.42 hPa
Previous

39 mins ago

K2G9 192035Z AUTO 19008KT 10SM CLR 19/07 A3028 RMK AO2
Observed
Sep-19 @ 20:35 UTC
Wind
  • 190° at 8 KTS
Visibility
10 SM
Flight Rules
VFR
Cloud Levels
  • Clear skies
Temperature
19°C / 66°F
Dewpoint
C / 45°F
Humidity
46%
Altimeter
30.28" Hg
Pressure
1025.42 hPa
Previous

59 mins ago

K2G9 192015Z AUTO 16006KT 10SM CLR 19/07 A3028 RMK AO2
Observed
Sep-19 @ 20:15 UTC
Wind
  • 160° at 6 KTS
Visibility
10 SM
Flight Rules
VFR
Cloud Levels
  • Clear skies
Temperature
19°C / 66°F
Dewpoint
C / 45°F
Humidity
46%
Altimeter
30.28" Hg
Pressure
1025.42 hPa